Time;durP1;ratioP1;P1;durP2;ratioP2;P2;SDS_P1;SDS_P2;PMS_P1;PMS_P2;Temp;Humidity;BMP_temperature;BMP_pressure;BME280_temperature;BME280_humidity;BME280_pressure;Samples;Min_cycle;Max_cycle;Signal;HPM_P1;HPM_P2
2023/06/28 00:01:53;;;;;;;7.00;1.30;;;;;;;12.95;79.87;100101.25;109964;1270;22194;-58
2023/06/28 00:04:24;;;;;;;4.60;1.00;;;;;;;12.92;79.92;100102.70;109979;1273;22226;-59
2023/06/28 00:06:55;;;;;;;8.90;1.00;;;;;;;12.91;80.14;100101.42;105857;1268;5408177;-58
2023/06/28 00:09:27;;;;;;;5.50;0.90;;;;;;;12.92;80.13;100100.67;109968;1277;22193;-58
2023/06/28 00:11:58;;;;;;;5.60;0.70;;;;;;;12.92;80.35;100096.04;109928;1277;22315;-59
2023/06/28 00:14:29;;;;;;;3.90;0.80;;;;;;;12.92;80.30;100099.77;109963;1274;22202;-58
2023/06/28 00:17:00;;;;;;;4.70;1.00;;;;;;;12.92;80.48;100099.34;109984;1271;22151;-59
2023/06/28 00:19:32;;;;;;;4.70;0.80;;;;;;;12.89;80.53;100092.85;109929;1273;22984;-59
2023/06/28 00:22:03;;;;;;;4.90;0.80;;;;;;;12.89;80.57;100093.16;109993;1281;22170;-59
2023/06/28 00:24:34;;;;;;;6.60;0.80;;;;;;;12.88;80.50;100088.68;109947;1280;22214;-59
2023/06/28 00:27:05;;;;;;;5.20;0.90;;;;;;;12.89;80.70;100085.27;109925;1277;22175;-58
2023/06/28 00:29:36;;;;;;;7.30;0.90;;;;;;;12.87;80.85;100082.24;109961;1273;22193;-59
2023/06/28 00:32:08;;;;;;;2.80;0.60;;;;;;;12.88;80.81;100089.17;109940;1277;22213;-58
2023/06/28 00:34:39;;;;;;;6.80;1.00;;;;;;;12.87;80.96;100088.25;109949;1277;22157;-58
2023/06/28 00:37:10;;;;;;;5.20;0.60;;;;;;;12.86;81.01;100087.22;109958;1273;22297;-59
2023/06/28 00:39:41;;;;;;;4.00;0.80;;;;;;;12.85;81.04;100089.82;109935;1281;22281;-59
2023/06/28 00:42:12;;;;;;;6.90;0.70;;;;;;;12.85;81.18;100090.07;109988;1270;23130;-59
2023/06/28 00:44:43;;;;;;;5.00;0.80;;;;;;;12.84;81.14;100091.48;109918;1270;22223;-58
2023/06/28 00:47:15;;;;;;;5.60;0.80;;;;;;;12.83;81.30;100091.69;109966;1270;22216;-58
2023/06/28 00:49:49;;;;;;;8.90;0.90;;;;;;;12.81;81.50;100090.55;109948;1277;22181;-58
2023/06/28 00:52:20;;;;;;;7.60;1.00;;;;;;;12.82;81.54;100092.70;109942;1273;22153;-59
2023/06/28 00:54:51;;;;;;;5.90;0.70;;;;;;;12.80;81.55;100093.41;109957;1281;23032;-57
2023/06/28 00:57:23;;;;;;;5.50;0.90;;;;;;;12.80;81.69;100094.06;109946;1270;22241;-59
2023/06/28 00:59:56;;;;;;;4.50;0.70;;;;;;;12.80;81.60;100094.27;109962;1276;22177;-59
2023/06/28 01:02:29;;;;;;;7.00;0.90;;;;;;;12.80;81.68;100092.84;108200;1261;24239;-58
2023/06/28 01:05:03;;;;;;;4.20;0.70;;;;;;;12.79;81.86;100095.12;109949;1267;22405;-59
2023/06/28 01:07:37;;;;;;;6.60;0.90;;;;;;;12.77;81.93;100099.73;109956;1274;22232;-59
2023/06/28 01:10:09;;;;;;;5.00;0.80;;;;;;;12.73;82.12;100099.15;109947;1274;22309;-59
2023/06/28 01:12:42;;;;;;;5.80;0.80;;;;;;;12.71;82.27;100101.89;109966;1281;22629;-58
2023/06/28 01:15:13;;;;;;;4.50;0.90;;;;;;;12.69;82.38;100099.67;109979;1274;22158;-58
2023/06/28 01:17:44;;;;;;;5.00;0.80;;;;;;;12.66;82.46;100097.86;109914;1277;22200;-59
2023/06/28 01:20:15;;;;;;;7.20;1.40;;;;;;;12.62;82.54;100088.02;109961;1270;22182;-58
2023/06/28 01:22:56;;;;;;;9.50;0.80;;;;;;;12.60;82.88;100085.49;109958;1277;22204;-59
2023/06/28 01:25:26;;;;;;;6.80;0.90;;;;;;;12.60;82.75;100089.72;109961;1269;22245;-59
2023/06/28 01:27:58;;;;;;;5.10;1.30;;;;;;;12.59;82.82;100086.41;109966;1281;22315;-58
2023/06/28 01:30:29;;;;;;;8.80;1.00;;;;;;;12.60;82.80;100087.63;109939;1270;22196;-58
2023/06/28 01:33:00;;;;;;;6.30;0.90;;;;;;;12.59;82.81;100083.35;109933;1277;22163;-61
2023/06/28 01:35:32;;;;;;;6.50;0.90;;;;;;;12.57;82.95;100081.72;109932;1274;22224;-59
2023/06/28 01:38:03;;;;;;;5.80;0.90;;;;;;;12.56;82.94;100078.80;109944;1270;22262;-58
2023/06/28 01:40:36;;;;;;;5.70;1.00;;;;;;;12.55;83.08;100079.60;109974;1268;22177;-59
2023/06/28 01:43:08;;;;;;;4.80;1.00;;;;;;;12.55;83.28;100079.14;109971;1274;22487;-59
2023/06/28 01:45:39;;;;;;;3.40;0.90;;;;;;;12.55;83.32;100075.53;109977;1270;22146;-59
2023/06/28 01:48:10;;;;;;;9.00;1.00;;;;;;;12.54;83.32;100076.39;109963;1276;22189;-59
2023/06/28 01:50:41;;;;;;;7.70;1.20;;;;;;;12.53;83.30;100069.10;109946;1273;22356;-59
2023/06/28 01:53:12;;;;;;;4.30;1.00;;;;;;;12.52;83.22;100072.20;109931;1274;22175;-58
2023/06/28 01:55:43;;;;;;;7.70;1.00;;;;;;;12.51;83.56;100074.48;109976;1270;22198;-59
2023/06/28 01:58:14;;;;;;;5.20;0.70;;;;;;;12.51;83.60;100071.58;109969;1273;22371;-59
2023/06/28 02:00:44;;;;;;;7.60;1.20;;;;;;;12.49;83.54;100067.94;109933;1281;22957;-59
2023/06/28 02:03:15;;;;;;;4.90;1.00;;;;;;;12.48;83.59;100070.53;109966;1271;22151;-59
2023/06/28 02:05:46;;;;;;;6.80;1.00;;;;;;;12.47;83.68;100064.46;109959;1277;22102;-59
2023/06/28 02:08:17;;;;;;;3.80;0.80;;;;;;;12.46;83.60;100063.38;109959;1269;22330;-59
2023/06/28 02:10:48;;;;;;;7.90;0.90;;;;;;;12.46;83.67;100067.40;109941;1273;23043;-58
2023/06/28 02:13:19;;;;;;;7.40;1.10;;;;;;;12.45;83.74;100068.73;109944;1273;22186;-58
2023/06/28 02:15:50;;;;;;;6.50;0.80;;;;;;;12.44;83.79;100072.06;109951;1279;22129;-59
2023/06/28 02:18:24;;;;;;;5.90;0.90;;;;;;;12.43;83.83;100076.70;109969;1279;22302;-58
2023/06/28 02:20:55;;;;;;;5.30;0.90;;;;;;;12.40;84.09;100070.16;109903;1277;22864;-59
2023/06/28 02:23:26;;;;;;;5.30;0.90;;;;;;;12.41;84.02;100071.73;109958;1271;22242;-59
2023/06/28 02:25:57;;;;;;;4.90;0.90;;;;;;;12.41;84.09;100068.69;109971;1277;23164;-59
2023/06/28 02:28:28;;;;;;;8.40;0.90;;;;;;;12.41;84.20;100068.67;109954;1268;22171;-59
2023/06/28 02:30:59;;;;;;;6.90;0.80;;;;;;;12.40;84.22;100069.03;109957;1281;22351;-60
2023/06/28 02:33:30;;;;;;;7.80;1.40;;;;;;;12.40;84.16;100071.13;109946;1277;22153;-59
2023/06/28 02:36:01;;;;;;;4.10;0.80;;;;;;;12.40;84.23;100072.55;109966;1277;22197;-59
2023/06/28 02:38:32;;;;;;;3.80;0.80;;;;;;;12.40;84.31;100075.76;109968;1270;22833;-59
2023/06/28 02:41:03;;;;;;;7.50;1.20;;;;;;;12.39;84.17;100074.77;109953;1277;22323;-58
2023/06/28 02:43:34;;;;;;;4.80;1.00;;;;;;;12.40;84.36;100076.88;109947;1274;22169;-59
2023/06/28 02:46:04;;;;;;;10.60;1.30;;;;;;;12.38;84.40;100075.95;109985;1281;22303;-60
2023/06/28 02:48:35;;;;;;;4.20;1.00;;;;;;;12.37;84.43;100079.39;109976;1281;22181;-59
2023/06/28 02:51:06;;;;;;;6.30;1.20;;;;;;;12.36;84.41;100081.63;109947;1274;22160;-59
2023/06/28 02:53:37;;;;;;;12.10;1.90;;;;;;;12.36;84.47;100083.55;109929;1270;22181;-59
2023/06/28 02:56:12;;;;;;;7.30;1.00;;;;;;;12.36;84.62;100086.14;109946;1277;22204;-59
2023/06/28 02:58:43;;;;;;;9.70;1.00;;;;;;;12.35;84.70;100092.35;109907;1279;22402;-59
2023/06/28 03:01:14;;;;;;;9.40;1.10;;;;;;;12.35;84.76;100092.52;109917;1267;22313;-59
2023/06/28 03:03:45;;;;;;;7.90;1.30;;;;;;;12.35;84.89;100098.61;109973;1281;22138;-59
2023/06/28 03:06:17;;;;;;;8.80;1.40;;;;;;;12.38;84.96;100095.75;109951;1270;22366;-59
2023/06/28 03:08:47;;;;;;;9.30;1.30;;;;;;;12.40;85.10;100100.23;109982;1270;22144;-59
2023/06/28 03:11:18;;;;;;;5.40;1.30;;;;;;;12.40;85.27;100100.08;109933;1280;22191;-59
2023/06/28 03:13:50;;;;;;;5.50;1.10;;;;;;;12.43;85.27;100104.17;109965;1269;22183;-58
2023/06/28 03:16:22;;;;;;;8.80;1.20;;;;;;;12.45;85.21;100106.89;109937;1267;22157;-59
2023/06/28 03:18:54;;;;;;;6.30;1.00;;;;;;;12.48;85.38;100105.59;109985;1281;22592;-59
2023/06/28 03:21:25;;;;;;;5.90;0.90;;;;;;;12.49;85.33;100109.03;107422;1269;22523;-58
2023/06/28 03:23:56;;;;;;;7.30;1.70;;;;;;;12.51;85.59;100106.29;105960;1277;22556;-59
2023/06/28 03:26:27;;;;;;;5.40;1.10;;;;;;;12.53;85.61;100107.29;105926;1281;22641;-59
2023/06/28 03:28:58;;;;;;;6.90;1.10;;;;;;;12.54;85.61;100105.50;105999;1281;22612;-58
2023/06/28 03:31:31;;;;;;;7.10;0.90;;;;;;;12.55;85.70;100101.55;109925;1274;22192;-59
2023/06/28 03:34:02;;;;;;;7.50;1.10;;;;;;;12.55;85.68;100102.91;109965;1281;22406;-59
2023/06/28 03:36:34;;;;;;;7.10;1.60;;;;;;;12.54;85.69;100108.05;109956;1277;22190;-59
2023/06/28 03:39:05;;;;;;;4.00;1.00;;;;;;;12.56;85.85;100114.74;109942;1277;22168;-59
2023/06/28 03:41:36;;;;;;;5.60;1.50;;;;;;;12.58;85.63;100115.27;109947;1270;22196;-59
2023/06/28 03:44:07;;;;;;;8.80;1.10;;;;;;;12.60;85.57;100115.23;109951;1267;23080;-59
2023/06/28 03:46:38;;;;;;;12.60;1.20;;;;;;;12.61;85.64;100115.70;109970;1276;22213;-59
2023/06/28 03:49:09;;;;;;;6.60;1.20;;;;;;;12.61;85.38;100114.33;109968;1274;22166;-60
2023/06/28 03:51:39;;;;;;;8.60;1.30;;;;;;;12.63;85.43;100111.59;109981;1281;22164;-60
2023/06/28 03:54:11;;;;;;;5.00;1.20;;;;;;;12.64;85.44;100113.69;109960;1270;22195;-59
2023/06/28 03:56:41;;;;;;;6.60;1.10;;;;;;;12.64;85.66;100116.19;109992;1270;22159;-58
2023/06/28 03:59:12;;;;;;;10.80;1.10;;;;;;;12.65;85.67;100114.81;109977;1279;22192;-59
2023/06/28 04:01:43;;;;;;;9.20;1.40;;;;;;;12.67;85.86;100113.05;109964;1269;22197;-59
2023/06/28 04:04:14;;;;;;;9.10;1.20;;;;;;;12.72;85.98;100117.52;109953;1274;22141;-59
2023/06/28 04:06:45;;;;;;;9.50;1.30;;;;;;;12.77;86.05;100115.83;109962;1281;22159;-59
2023/06/28 04:09:16;;;;;;;5.30;1.10;;;;;;;12.83;86.23;100118.27;109942;1269;22158;-59
2023/06/28 04:11:47;;;;;;;6.90;1.00;;;;;;;12.90;86.47;100117.92;109918;1273;22182;-60
2023/06/28 04:14:18;;;;;;;9.60;1.10;;;;;;;12.96;86.00;100115.27;109925;1279;22154;-60
2023/06/28 04:16:49;;;;;;;7.60;1.20;;;;;;;13.01;86.14;100117.49;109944;1276;22789;-60
2023/06/28 04:19:20;;;;;;;11.00;1.20;;;;;;;13.07;85.96;100123.95;109935;1267;22307;-60
2023/06/28 04:21:51;;;;;;;6.30;0.90;;;;;;;13.11;85.96;100121.67;109927;1281;22148;-60
2023/06/28 04:24:22;;;;;;;7.70;1.20;;;;;;;13.15;85.89;100122.16;109947;1273;22196;-60
2023/06/28 04:26:52;;;;;;;10.20;1.20;;;;;;;13.19;85.74;100121.91;109974;1276;22153;-60
2023/06/28 04:29:23;;;;;;;9.90;1.50;;;;;;;13.22;85.64;100119.49;109953;1269;22203;-58
2023/06/28 04:31:55;;;;;;;13.00;2.30;;;;;;;13.23;85.33;100118.07;109967;1277;22157;-58
2023/06/28 04:34:25;;;;;;;7.20;1.20;;;;;;;13.24;85.27;100119.40;109902;1273;23188;-59
2023/06/28 04:36:58;;;;;;;11.90;1.70;;;;;;;13.25;85.39;100122.23;109951;1274;23371;-61
2023/06/28 04:39:29;;;;;;;8.40;1.20;;;;;;;13.26;85.25;100120.91;109884;1273;23126;-60
2023/06/28 04:42:03;;;;;;;6.10;1.00;;;;;;;13.27;85.23;100117.14;109075;1273;24087;-58
2023/06/28 04:44:36;;;;;;;5.70;0.90;;;;;;;13.29;85.25;100117.81;105938;1278;22655;-59
2023/06/28 04:47:08;;;;;;;7.40;1.20;;;;;;;13.29;85.27;100117.25;105905;1277;24223;-58
2023/06/28 04:49:39;;;;;;;6.30;1.10;;;;;;;13.31;85.46;100112.23;108983;1274;22867;-58
2023/06/28 04:52:12;;;;;;;5.00;1.00;;;;;;;13.35;85.57;100116.73;109925;1274;22205;-56
2023/06/28 04:54:43;;;;;;;4.70;1.30;;;;;;;13.40;85.56;100115.54;109945;1270;23003;-58
2023/06/28 04:57:15;;;;;;;10.40;0.90;;;;;;;13.44;85.51;100109.12;109904;1273;22915;-59
2023/06/28 04:59:46;;;;;;;4.80;0.80;;;;;;;13.49;85.63;100102.52;109935;1276;22217;-57
2023/06/28 05:02:17;;;;;;;10.10;1.20;;;;;;;13.57;85.57;100098.78;109917;1273;23321;-58
2023/06/28 05:04:49;;;;;;;5.50;0.80;;;;;;;13.67;85.57;100098.27;109934;1281;23305;-58
2023/06/28 05:07:19;;;;;;;4.80;1.00;;;;;;;13.78;85.69;100101.88;109934;1274;22823;-58
2023/06/28 05:09:50;;;;;;;6.10;0.90;;;;;;;13.90;85.52;100103.97;109981;1267;22134;-59
2023/06/28 05:12:21;;;;;;;6.30;1.10;;;;;;;14.01;85.34;100103.59;109907;1270;22148;-57
2023/06/28 05:14:52;;;;;;;8.50;1.10;;;;;;;14.13;85.11;100102.95;109929;1274;22143;-58
2023/06/28 05:17:23;;;;;;;4.20;0.70;;;;;;;14.22;84.69;100098.45;109950;1273;22189;-59
2023/06/28 05:19:54;;;;;;;8.00;1.00;;;;;;;14.29;84.63;100095.71;109959;1281;22123;-58
2023/06/28 05:22:26;;;;;;;8.10;0.80;;;;;;;14.38;84.55;100094.05;109928;1274;22171;-59
2023/06/28 05:24:57;;;;;;;5.40;0.90;;;;;;;14.47;84.37;100091.25;109933;1276;22222;-58
2023/06/28 05:27:29;;;;;;;4.60;0.80;;;;;;;14.54;84.37;100092.95;109987;1273;23024;-58
2023/06/28 05:29:59;;;;;;;5.70;0.80;;;;;;;14.64;83.84;100098.78;109958;1267;22350;-58
2023/06/28 05:32:30;;;;;;;7.50;1.00;;;;;;;14.73;84.17;100097.23;109982;1267;22277;-58
2023/06/28 05:35:02;;;;;;;5.70;1.10;;;;;;;14.83;84.12;100096.58;109990;1281;22315;-59
2023/06/28 05:37:33;;;;;;;6.50;1.00;;;;;;;14.94;83.81;100100.34;109987;1280;22162;-59
2023/06/28 05:40:05;;;;;;;10.30;1.40;;;;;;;15.05;83.57;100102.07;109923;1270;22157;-59
2023/06/28 05:42:36;;;;;;;7.30;1.00;;;;;;;15.08;82.93;100104.05;109977;1274;22875;-58
2023/06/28 05:45:08;;;;;;;7.40;1.00;;;;;;;15.09;82.77;100111.32;109949;1270;22967;-59
2023/06/28 05:47:39;;;;;;;5.40;1.20;;;;;;;15.10;82.49;100115.14;109936;1274;22203;-58
2023/06/28 05:50:11;;;;;;;5.20;0.90;;;;;;;15.17;82.72;100108.08;109966;1273;23298;-59
2023/06/28 05:52:42;;;;;;;3.90;0.90;;;;;;;15.29;82.92;100106.23;109982;1281;22934;-59
2023/06/28 05:55:13;;;;;;;6.70;1.40;;;;;;;15.41;82.54;100104.25;109977;1270;22266;-58
2023/06/28 05:57:44;;;;;;;9.80;1.10;;;;;;;15.50;82.32;100105.80;109949;1276;22828;-58
2023/06/28 06:00:17;;;;;;;5.70;0.70;;;;;;;15.58;82.23;100105.09;109976;1267;22203;-59
2023/06/28 06:02:48;;;;;;;6.70;1.00;;;;;;;15.67;81.72;100103.17;109950;1273;22819;-59
2023/06/28 06:05:19;;;;;;;12.80;1.80;;;;;;;15.73;81.69;100101.40;109923;1267;22585;-59
2023/06/28 06:07:50;;;;;;;3.80;0.80;;;;;;;15.83;82.21;100103.77;109962;1273;22898;-59
2023/06/28 06:10:21;;;;;;;9.20;1.20;;;;;;;15.98;82.15;100104.10;109946;1269;22169;-57
2023/06/28 06:12:53;;;;;;;8.50;0.80;;;;;;;16.10;81.72;100107.83;109943;1270;22175;-59
2023/06/28 06:15:24;;;;;;;5.80;0.70;;;;;;;16.14;80.80;100097.31;109986;1269;22126;-59
2023/06/28 06:17:55;;;;;;;8.90;1.00;;;;;;;16.14;80.56;100098.01;109964;1273;22162;-58
2023/06/28 06:20:26;;;;;;;8.20;1.00;;;;;;;16.13;80.01;100108.17;109953;1273;22185;-59
2023/06/28 06:22:56;;;;;;;5.50;0.80;;;;;;;16.09;79.93;100106.04;109983;1273;22315;-59
2023/06/28 06:25:28;;;;;;;8.40;0.80;;;;;;;16.06;79.74;100107.80;109984;1266;22383;-60
2023/06/28 06:27:59;;;;;;;8.40;0.70;;;;;;;16.03;79.25;100111.30;109982;1276;23018;-59
2023/06/28 06:30:30;;;;;;;6.80;0.80;;;;;;;16.00;79.16;100115.15;109972;1274;22269;-59
2023/06/28 06:33:01;;;;;;;4.70;0.70;;;;;;;15.98;78.96;100114.39;108078;1273;22540;-59
2023/06/28 06:35:33;;;;;;;8.40;0.80;;;;;;;15.97;78.94;100111.69;109939;1273;23036;-59
2023/06/28 06:38:04;;;;;;;6.00;0.70;;;;;;;15.99;78.99;100114.73;109982;1281;22224;-59
2023/06/28 06:40:35;;;;;;;5.60;0.70;;;;;;;16.06;79.10;100120.75;109982;1273;22183;-59
2023/06/28 06:43:07;;;;;;;3.90;1.00;;;;;;;16.17;78.86;100116.80;109962;1273;22202;-60
2023/06/28 06:45:38;;;;;;;9.30;0.80;;;;;;;16.27;78.25;100104.75;109969;1270;22220;-59
2023/06/28 06:48:09;;;;;;;8.00;0.90;;;;;;;16.36;78.61;100110.69;109974;1267;22941;-60
2023/06/28 06:50:40;;;;;;;6.40;0.70;;;;;;;16.46;77.77;100107.75;109957;1267;22307;-59
2023/06/28 06:53:11;;;;;;;6.90;0.80;;;;;;;16.58;77.95;100102.02;109951;1273;22985;-60
2023/06/28 06:55:42;;;;;;;6.50;0.80;;;;;;;16.67;77.56;100098.55;109981;1279;22204;-60
2023/06/28 06:58:13;;;;;;;10.80;1.00;;;;;;;16.77;77.43;100101.96;109943;1273;22215;-59
2023/06/28 07:00:46;;;;;;;7.70;1.10;;;;;;;16.87;77.02;100101.20;109982;1273;22190;-60
2023/06/28 07:03:17;;;;;;;5.80;0.80;;;;;;;16.99;77.12;100097.10;109969;1273;22197;-59
2023/06/28 07:05:48;;;;;;;6.00;0.80;;;;;;;17.12;76.39;100098.17;109965;1267;22912;-59
2023/06/28 07:08:19;;;;;;;5.20;0.80;;;;;;;17.18;75.88;100093.68;109962;1273;22303;-59
2023/06/28 07:10:50;;;;;;;6.40;0.50;;;;;;;17.27;75.38;100096.56;109998;1270;22206;-59
2023/06/28 07:13:21;;;;;;;4.40;0.80;;;;;;;17.31;74.46;100096.79;109934;1273;22341;-60
2023/06/28 07:15:52;;;;;;;5.60;0.60;;;;;;;17.33;73.87;100093.79;109952;1273;22368;-60
2023/06/28 07:18:23;;;;;;;6.60;1.00;;;;;;;17.36;73.73;100097.95;109947;1270;22924;-61
2023/06/28 07:20:54;;;;;;;3.30;0.60;;;;;;;17.42;73.35;100091.31;106563;1274;22524;-59
2023/06/28 07:23:25;;;;;;;7.00;0.80;;;;;;;17.47;72.93;100096.45;105884;1273;22877;-58
2023/06/28 07:25:56;;;;;;;8.90;0.70;;;;;;;17.49;71.80;100097.58;109944;1273;23221;-59
2023/06/28 07:28:27;;;;;;;4.30;0.70;;;;;;;17.51;71.10;100097.16;109946;1273;22355;-59
2023/06/28 07:30:59;;;;;;;6.00;0.70;;;;;;;17.56;70.38;100098.68;109955;1267;22179;-59
2023/06/28 07:33:30;;;;;;;8.00;0.90;;;;;;;17.59;70.05;100098.29;109966;1274;22272;-59
2023/06/28 07:36:01;;;;;;;8.30;0.70;;;;;;;17.60;70.38;100098.17;109970;1268;22964;-59
2023/06/28 07:38:33;;;;;;;6.20;0.70;;;;;;;17.61;68.87;100103.51;109994;1273;22303;-58
2023/06/28 07:41:04;;;;;;;3.20;0.70;;;;;;;17.51;69.06;100093.50;109987;1273;22197;-60
2023/06/28 07:43:34;;;;;;;5.10;0.60;;;;;;;17.47;69.34;100092.09;109961;1273;22234;-59
2023/06/28 07:46:05;;;;;;;6.50;1.10;;;;;;;17.43;68.77;100097.69;109980;1267;22179;-59
2023/06/28 07:48:37;;;;;;;4.70;0.50;;;;;;;17.43;68.61;100100.33;109967;1266;22215;-59
2023/06/28 07:51:08;;;;;;;9.80;1.10;;;;;;;17.50;67.07;100095.05;109966;1276;22173;-59
2023/06/28 07:53:39;;;;;;;5.10;0.50;;;;;;;17.62;66.22;100097.02;109971;1273;22200;-59
2023/06/28 07:56:10;;;;;;;3.90;0.50;;;;;;;17.72;66.08;100098.65;109992;1273;22201;-59
2023/06/28 07:58:41;;;;;;;4.30;0.50;;;;;;;17.77;65.91;100095.55;109998;1277;22164;-59
2023/06/28 08:01:14;;;;;;;6.10;0.60;;;;;;;17.78;65.33;100094.89;109952;1266;22176;-59
2023/06/28 08:03:46;;;;;;;5.20;0.60;;;;;;;17.76;65.65;100096.23;109980;1274;22131;-59
2023/06/28 08:06:16;;;;;;;4.60;0.60;;;;;;;17.77;64.56;100105.77;109959;1273;23005;-59
2023/06/28 08:08:48;;;;;;;4.80;0.70;;;;;;;17.74;63.76;100105.23;110010;1273;22922;-60
2023/06/28 08:11:18;;;;;;;4.10;0.70;;;;;;;17.79;64.06;100100.96;109971;1270;22292;-59
2023/06/28 08:13:50;;;;;;;6.80;0.60;;;;;;;17.86;64.01;100098.33;110015;1279;23226;-59
2023/06/28 08:16:21;;;;;;;3.30;0.50;;;;;;;17.90;62.98;100101.55;109945;1270;22213;-58
2023/06/28 08:18:52;;;;;;;5.10;0.50;;;;;;;17.85;62.69;100097.26;108789;1277;24275;-59
2023/06/28 08:21:23;;;;;;;3.80;0.50;;;;;;;17.83;62.16;100100.36;106061;1280;25612;-59
2023/06/28 08:23:54;;;;;;;6.20;0.50;;;;;;;17.92;61.32;100091.93;105993;1267;24924;-58
2023/06/28 08:26:26;;;;;;;2.70;0.50;;;;;;;18.05;60.96;100094.98;105990;1270;22536;-58
2023/06/28 08:29:18;;;;;;;3.30;0.60;;;;;;;18.11;60.88;100090.13;109974;1274;22342;-59
2023/06/28 08:31:50;;;;;;;7.30;0.70;;;;;;;18.09;60.54;100093.86;109954;1273;22182;-58
2023/06/28 08:34:21;;;;;;;4.60;0.60;;;;;;;18.08;60.23;100090.42;109957;1273;22190;-60
2023/06/28 08:36:52;;;;;;;3.50;0.50;;;;;;;18.14;60.00;100091.36;110005;1273;22283;-59
2023/06/28 08:39:23;;;;;;;5.50;0.50;;;;;;;18.20;57.92;100093.60;109964;1273;23106;-59
2023/06/28 08:41:55;;;;;;;4.70;0.70;;;;;;;18.25;58.25;100088.23;109970;1273;22178;-58
2023/06/28 08:44:30;;;;;;;5.80;0.60;;;;;;;18.38;58.42;100091.73;108835;1273;26700;-58
2023/06/28 08:47:02;;;;;;;5.30;0.50;;;;;;;18.52;57.76;100085.64;105952;1280;22533;-59
2023/06/28 08:49:36;;;;;;;4.40;0.40;;;;;;;18.56;57.26;100088.24;109987;1270;22163;-59
2023/06/28 08:52:08;;;;;;;3.60;0.30;;;;;;;18.52;57.09;100090.92;109933;1270;22228;-60
2023/06/28 08:54:41;;;;;;;5.20;0.50;;;;;;;18.47;57.43;100082.63;109948;1266;22183;-59
2023/06/28 08:57:13;;;;;;;9.20;0.80;;;;;;;18.51;57.76;100072.44;109993;1273;22820;-59
2023/06/28 08:59:45;;;;;;;5.20;0.50;;;;;;;18.64;58.14;100072.39;109955;1266;22195;-59
2023/06/28 09:02:18;;;;;;;5.30;0.50;;;;;;;18.72;57.20;100074.92;109963;1273;22339;-59
2023/06/28 09:04:51;;;;;;;4.00;0.60;;;;;;;18.73;57.69;100071.05;109950;1281;22175;-60
2023/06/28 09:07:24;;;;;;;7.30;0.60;;;;;;;18.77;57.34;100065.38;109957;1273;22234;-60
2023/06/28 09:09:56;;;;;;;3.00;0.50;;;;;;;18.92;57.66;100073.67;109531;1270;22521;-60
2023/06/28 09:12:29;;;;;;;3.10;0.40;;;;;;;19.01;56.42;100071.55;109957;1273;22161;-60
2023/06/28 09:15:00;;;;;;;3.70;0.50;;;;;;;18.97;55.56;100074.60;110001;1274;22214;-60
2023/06/28 09:17:31;;;;;;;3.60;0.70;;;;;;;18.87;55.26;100075.80;109970;1265;22162;-60
2023/06/28 09:20:17;;;;;;;3.60;0.50;;;;;;;18.80;55.04;100071.09;109991;1273;22362;-60
2023/06/28 09:22:58;;;;;;;8.30;0.60;;;;;;;18.77;55.23;100077.41;109969;1280;22379;-59
2023/06/28 09:25:31;;;;;;;4.00;0.50;;;;;;;18.73;54.95;100081.59;110021;1273;22324;-59
2023/06/28 09:28:03;;;;;;;5.10;0.50;;;;;;;18.64;54.67;100082.52;109980;1270;22394;-60
2023/06/28 09:30:36;;;;;;;7.50;0.60;;;;;;;18.57;54.93;100083.14;109970;1270;22216;-59
2023/06/28 09:33:07;;;;;;;4.60;0.40;;;;;;;18.54;54.56;100090.84;109967;1267;22312;-60
2023/06/28 09:35:39;;;;;;;5.80;0.60;;;;;;;18.48;55.05;100093.77;109982;1270;22170;-59
2023/06/28 09:38:11;;;;;;;2.90;0.50;;;;;;;18.44;54.98;100094.48;109843;1279;22513;-67
2023/06/28 09:40:42;;;;;;;2.90;0.70;;;;;;;18.37;55.28;100094.94;106023;1273;25368;-61
2023/06/28 09:43:17;;;;;;;3.60;0.50;;;;;;;18.23;55.90;100101.71;106136;1263;25401;-61
2023/06/28 09:45:50;;;;;;;8.90;0.50;;;;;;;18.04;56.22;100099.42;110006;1277;22199;-61
2023/06/28 09:48:25;;;;;;;3.40;0.50;;;;;;;17.87;56.11;100103.80;109979;1272;22218;-61
2023/06/28 09:50:56;;;;;;;7.00;0.80;;;;;;;17.70;56.54;100107.60;109960;1273;22340;-61
2023/06/28 09:53:27;;;;;;;5.70;0.50;;;;;;;17.58;56.71;100109.59;109979;1273;22381;-61
2023/06/28 09:55:59;;;;;;;8.90;0.60;;;;;;;17.42;57.99;100114.61;110001;1273;22528;-61
2023/06/28 09:58:31;;;;;;;6.60;0.60;;;;;;;17.28;59.51;100121.04;109935;1264;22321;-62
2023/06/28 10:01:03;;;;;;;5.20;0.60;;;;;;;17.15;60.65;100123.01;109954;1273;22415;-61
2023/06/28 10:03:35;;;;;;;6.10;0.70;;;;;;;17.02;61.70;100125.02;109950;1273;22175;-61
2023/06/28 10:06:09;;;;;;;3.50;0.60;;;;;;;16.88;62.61;100124.32;109981;1273;22175;-61
2023/06/28 10:08:40;;;;;;;2.40;0.40;;;;;;;16.78;63.42;100123.17;109982;1273;22707;-62
2023/06/28 10:11:16;;;;;;;3.70;0.50;;;;;;;16.68;63.48;100128.48;109954;1266;22352;-62
2023/06/28 10:13:50;;;;;;;6.80;0.70;;;;;;;16.57;63.80;100127.19;109959;1273;22186;-61
2023/06/28 10:16:25;;;;;;;5.80;0.60;;;;;;;16.51;64.65;100128.09;109969;1269;22205;-65
2023/06/28 10:18:57;;;;;;;6.20;0.50;;;;;;;16.43;64.73;100124.79;109982;1267;23051;-61
2023/06/28 10:21:28;;;;;;;4.20;0.60;;;;;;;16.36;64.91;100124.13;109986;1276;22215;-61
2023/06/28 10:24:00;;;;;;;3.90;0.60;;;;;;;16.32;65.00;100123.57;109961;1268;22328;-61
2023/06/28 10:26:34;;;;;;;4.10;0.50;;;;;;;16.32;65.38;100119.58;109955;1273;22344;-61
2023/06/28 10:29:05;;;;;;;6.70;0.80;;;;;;;16.34;65.99;100119.66;109975;1277;22995;-62
2023/06/28 10:31:37;;;;;;;4.80;0.60;;;;;;;16.36;66.38;100118.73;109973;1277;22167;-62
2023/06/28 10:34:08;;;;;;;4.60;0.80;;;;;;;16.38;66.41;100118.52;109963;1269;22865;-61
2023/06/28 10:36:39;;;;;;;6.30;0.50;;;;;;;16.39;66.17;100120.63;109980;1266;22657;-62
2023/06/28 10:39:11;;;;;;;7.50;0.60;;;;;;;16.40;66.01;100119.93;109971;1267;22222;-62
2023/06/28 10:41:42;;;;;;;3.10;0.50;;;;;;;16.40;65.43;100117.13;109924;1274;22936;-61
2023/06/28 10:44:14;;;;;;;4.00;0.60;;;;;;;16.42;65.32;100115.98;109957;1273;22350;-61
2023/06/28 10:46:46;;;;;;;4.20;0.70;;;;;;;16.44;65.59;100113.46;109978;1277;22222;-61
2023/06/28 10:49:17;;;;;;;11.30;0.70;;;;;;;16.47;65.20;100118.30;109945;1267;22192;-62
2023/06/28 10:51:50;;;;;;;3.30;0.50;;;;;;;16.48;64.92;100119.67;109956;1272;22113;-62
2023/06/28 10:54:21;;;;;;;5.10;0.70;;;;;;;16.46;64.55;100120.92;109948;1270;22194;-62
2023/06/28 10:56:55;;;;;;;6.50;0.70;;;;;;;16.45;64.79;100122.16;109957;1273;22841;-61
2023/06/28 10:59:27;;;;;;;6.20;0.80;;;;;;;16.44;64.46;100126.72;109955;1273;22912;-62
2023/06/28 11:01:59;;;;;;;6.90;0.90;;;;;;;16.42;64.70;100130.38;109967;1281;22338;-61
2023/06/28 11:04:30;;;;;;;1.40;0.40;;;;;;;16.41;64.67;100130.33;109962;1274;22346;-60
2023/06/28 11:07:17;;;;;;;5.70;0.60;;;;;;;16.40;64.93;100134.02;109969;1273;22328;-61
2023/06/28 11:10:14;;;;;;;4.70;0.50;;;;;;;16.41;64.92;100132.27;110018;1274;22213;-61
2023/06/28 11:12:48;;;;;;;4.90;0.70;;;;;;;16.44;64.82;100137.70;109956;1276;22188;-62
2023/06/28 11:15:30;;;;;;;5.20;0.80;;;;;;;16.47;65.12;100131.77;109129;1274;23071;-61
2023/06/28 11:18:12;;;;;;;8.80;0.60;;;;;;;16.49;65.25;100137.36;109974;1277;23087;-61
2023/06/28 11:20:58;;;;;;;6.20;0.50;;;;;;;16.40;65.82;100143.61;109961;1273;22126;-61
2023/06/28 11:23:36;;;;;;;4.20;0.60;;;;;;;16.29;66.16;100135.42;109277;1267;25339;-60
2023/06/28 11:26:10;;;;;;;4.40;0.50;;;;;;;16.26;66.28;100139.59;110003;1273;23251;-61
2023/06/28 11:28:50;;;;;;;5.70;0.60;;;;;;;16.26;66.20;100138.11;106692;1280;25360;-60
2023/06/28 11:31:24;;;;;;;3.00;0.50;;;;;;;16.27;66.07;100148.04;109958;1274;22199;-61
2023/06/28 11:33:56;;;;;;;4.00;0.70;;;;;;;16.27;66.16;100146.49;109962;1274;22223;-61
2023/06/28 11:36:27;;;;;;;4.40;0.70;;;;;;;16.29;66.25;100149.20;109953;1274;22964;-61
2023/06/28 11:38:59;;;;;;;6.70;1.00;;;;;;;16.29;66.40;100149.41;109993;1274;22324;-61